createdAt,value
2023-01-07T00:00:07.000Z,10.9
2023-01-07T00:02:51.000Z,10.9
2023-01-07T00:05:36.000Z,10.9
2023-01-07T00:08:21.000Z,10.9
2023-01-07T00:11:05.000Z,10.8
2023-01-07T00:13:50.000Z,10.9
2023-01-07T00:16:35.000Z,10.8
2023-01-07T00:19:19.000Z,10.9
2023-01-07T00:22:04.000Z,10.8
2023-01-07T00:23:22.000Z,10.8
2023-01-07T00:24:48.000Z,10.8
2023-01-07T00:27:33.000Z,10.8
2023-01-07T00:30:18.000Z,10.8
2023-01-07T00:33:02.000Z,10.8
2023-01-07T00:35:47.000Z,10.8
2023-01-07T00:38:32.000Z,10.8
2023-01-07T00:41:16.000Z,10.8
2023-01-07T00:44:01.000Z,10.8
2023-01-07T00:46:46.000Z,10.8
2023-01-07T00:49:30.000Z,10.8
2023-01-07T00:50:48.000Z,10.8
2023-01-07T00:52:15.000Z,10.8
2023-01-07T00:54:59.000Z,10.8
2023-01-07T00:57:44.000Z,10.8
2023-01-07T01:00:29.000Z,10.8
2023-01-07T01:03:13.000Z,10.8
2023-01-07T01:05:58.000Z,10.8
2023-01-07T01:08:43.000Z,10.7
2023-01-07T01:11:27.000Z,10.8
2023-01-07T01:14:12.000Z,10.7
2023-01-07T01:16:57.000Z,10.7
2023-01-07T01:18:15.000Z,10.8
2023-01-07T01:19:41.000Z,10.8
2023-01-07T01:22:26.000Z,10.8
2023-01-07T01:25:11.000Z,10.8
2023-01-07T01:27:55.000Z,10.8
2023-01-07T01:30:40.000Z,10.8
2023-01-07T01:33:24.000Z,10.9
2023-01-07T01:36:09.000Z,10.9
2023-01-07T01:38:54.000Z,10.9
2023-01-07T01:41:38.000Z,10.9
2023-01-07T01:44:23.000Z,10.9
2023-01-07T01:45:41.000Z,10.9
2023-01-07T01:47:08.000Z,10.9
2023-01-07T01:49:52.000Z,10.9
2023-01-07T01:52:37.000Z,10.9
2023-01-07T01:55:22.000Z,10.9
2023-01-07T01:58:06.000Z,10.9
2023-01-07T02:00:51.000Z,10.9
2023-01-07T02:03:36.000Z,10.9
2023-01-07T02:06:20.000Z,10.9
2023-01-07T02:09:05.000Z,10.8
2023-01-07T02:11:49.000Z,10.9
2023-01-07T02:13:07.000Z,10.9
2023-01-07T02:14:34.000Z,10.9
2023-01-07T02:17:19.000Z,10.9
2023-01-07T02:20:03.000Z,10.8
2023-01-07T02:22:48.000Z,10.7
2023-01-07T02:25:33.000Z,10.7
2023-01-07T02:28:17.000Z,10.8
2023-01-07T02:31:02.000Z,10.8
2023-01-07T02:34:03.000Z,10.8
2023-01-07T02:36:48.000Z,10.8
2023-01-07T02:39:32.000Z,10.8
2023-01-07T02:40:50.000Z,10.8
2023-01-07T02:42:17.000Z,10.8
2023-01-07T02:45:01.000Z,10.9
2023-01-07T02:47:46.000Z,10.9
2023-01-07T02:50:31.000Z,10.9
2023-01-07T02:53:15.000Z,10.9
2023-01-07T02:56:00.000Z,10.9
2023-01-07T02:58:45.000Z,10.9
2023-01-07T03:01:29.000Z,10.9
2023-01-07T03:04:14.000Z,11
2023-01-07T03:06:59.000Z,10.9
2023-01-07T03:08:16.000Z,10.9
2023-01-07T03:09:43.000Z,10.9
2023-01-07T03:12:28.000Z,10.9
2023-01-07T03:15:13.000Z,10.9
2023-01-07T03:17:57.000Z,10.9
2023-01-07T03:20:42.000Z,10.9
2023-01-07T03:23:26.000Z,10.9
2023-01-07T03:26:11.000Z,10.9
2023-01-07T03:28:56.000Z,10.9
2023-01-07T03:31:40.000Z,10.9
2023-01-07T03:34:25.000Z,10.9
2023-01-07T03:35:43.000Z,10.8
2023-01-07T03:37:10.000Z,10.8
2023-01-07T03:39:54.000Z,10.8
2023-01-07T03:42:39.000Z,10.8
2023-01-07T03:45:24.000Z,10.8
2023-01-07T03:48:08.000Z,10.8
2023-01-07T03:50:53.000Z,10.8
2023-01-07T03:53:38.000Z,10.8
2023-01-07T03:56:22.000Z,10.9
2023-01-07T03:59:07.000Z,10.9
2023-01-07T04:01:51.000Z,10.9
2023-01-07T04:03:09.000Z,10.9
2023-01-07T04:04:36.000Z,10.9
2023-01-07T04:07:21.000Z,10.9
2023-01-07T04:10:05.000Z,10.9
2023-01-07T04:12:50.000Z,10.8
2023-01-07T04:15:35.000Z,10.8
2023-01-07T04:18:19.000Z,10.8
2023-01-07T04:21:04.000Z,10.8
2023-01-07T04:23:49.000Z,10.8
2023-01-07T04:26:33.000Z,10.8
2023-01-07T04:29:18.000Z,10.8
2023-01-07T04:30:36.000Z,10.8
2023-01-07T04:32:02.000Z,10.8
2023-01-07T04:34:47.000Z,10.8
2023-01-07T04:37:32.000Z,10.8
2023-01-07T04:40:16.000Z,10.9
2023-01-07T04:43:01.000Z,10.8
2023-01-07T04:45:46.000Z,10.9
2023-01-07T04:48:30.000Z,10.9
2023-01-07T04:51:15.000Z,10.9
2023-01-07T04:54:00.000Z,10.9
2023-01-07T04:56:44.000Z,10.7
2023-01-07T04:58:02.000Z,10.7
2023-01-07T04:59:29.000Z,10.7
2023-01-07T05:02:14.000Z,10.7
2023-01-07T05:04:58.000Z,10.6
2023-01-07T05:07:43.000Z,10.5
2023-01-07T05:10:27.000Z,10.4
2023-01-07T05:13:12.000Z,10.4
2023-01-07T05:15:57.000Z,10.4
2023-01-07T05:18:41.000Z,10.3
2023-01-07T05:21:26.000Z,10.3
2023-01-07T05:24:11.000Z,10.2
2023-01-07T05:25:28.000Z,10.3
2023-01-07T05:26:55.000Z,10.3
2023-01-07T05:29:40.000Z,10.3
2023-01-07T05:32:25.000Z,10.2
2023-01-07T05:35:09.000Z,10.1
2023-01-07T05:37:54.000Z,10.1
2023-01-07T05:40:38.000Z,10
2023-01-07T05:43:23.000Z,10
2023-01-07T05:46:08.000Z,9.8
2023-01-07T05:48:52.000Z,9.7
2023-01-07T05:51:37.000Z,9.6
2023-01-07T05:52:55.000Z,9.5
2023-01-07T05:54:22.000Z,9.4
2023-01-07T05:57:06.000Z,9.4
2023-01-07T05:59:51.000Z,9.4
2023-01-07T06:02:36.000Z,9.3
2023-01-07T06:05:20.000Z,9.3
2023-01-07T06:08:05.000Z,9.2
2023-01-07T06:10:50.000Z,9.2
2023-01-07T06:13:34.000Z,9.1
2023-01-07T06:16:19.000Z,9.1
2023-01-07T06:19:03.000Z,9
2023-01-07T06:20:21.000Z,8.9
2023-01-07T06:21:48.000Z,9
2023-01-07T06:24:33.000Z,8.9
2023-01-07T06:27:17.000Z,8.8
2023-01-07T06:30:02.000Z,8.8
2023-01-07T06:32:47.000Z,8.8
2023-01-07T06:35:31.000Z,8.8
2023-01-07T06:38:16.000Z,8.7
2023-01-07T06:41:01.000Z,8.7
2023-01-07T06:43:45.000Z,8.8
2023-01-07T06:46:30.000Z,8.8
2023-01-07T06:47:48.000Z,8.9
2023-01-07T06:49:15.000Z,8.9
2023-01-07T06:51:59.000Z,9
2023-01-07T06:54:44.000Z,9
2023-01-07T06:57:28.000Z,9
2023-01-07T07:00:13.000Z,9.1
2023-01-07T07:02:58.000Z,9.1
2023-01-07T07:05:42.000Z,9.1
2023-01-07T07:08:27.000Z,9
2023-01-07T07:11:12.000Z,8.9
2023-01-07T07:13:56.000Z,8.9
2023-01-07T07:15:14.000Z,8.8
2023-01-07T07:16:41.000Z,8.7
2023-01-07T07:19:26.000Z,8.7
2023-01-07T07:22:10.000Z,8.7
2023-01-07T07:24:55.000Z,8.6
2023-01-07T07:27:39.000Z,8.6
2023-01-07T07:30:24.000Z,8.7
2023-01-07T07:33:09.000Z,8.6
2023-01-07T07:35:53.000Z,8.7
2023-01-07T07:38:38.000Z,8.7
2023-01-07T07:41:23.000Z,8.7
2023-01-07T07:42:41.000Z,8.6
2023-01-07T07:44:07.000Z,8.6
2023-01-07T07:46:52.000Z,8.5
2023-01-07T07:49:37.000Z,8.5
2023-01-07T07:52:21.000Z,8.6
2023-01-07T07:55:06.000Z,8.7
2023-01-07T07:57:51.000Z,8.8
2023-01-07T08:00:35.000Z,9
2023-01-07T08:03:20.000Z,8.9
2023-01-07T08:06:04.000Z,8.9
2023-01-07T08:08:49.000Z,8.9
2023-01-07T08:10:07.000Z,9
2023-01-07T08:11:34.000Z,9
2023-01-07T08:14:18.000Z,8.9
2023-01-07T08:17:03.000Z,9
2023-01-07T08:19:48.000Z,8.9
2023-01-07T08:22:32.000Z,9
2023-01-07T08:25:17.000Z,9
2023-01-07T08:28:02.000Z,9.1
2023-01-07T08:30:46.000Z,9.1
2023-01-07T08:33:31.000Z,9.1
2023-01-07T08:36:16.000Z,9.2
2023-01-07T08:37:33.000Z,9.3
2023-01-07T08:39:00.000Z,9.4
2023-01-07T08:41:45.000Z,9.4
2023-01-07T08:44:29.000Z,9.4
2023-01-07T08:47:14.000Z,9.5
2023-01-07T08:49:59.000Z,9.5
2023-01-07T08:52:43.000Z,9.5
2023-01-07T08:55:28.000Z,9.6
2023-01-07T08:58:13.000Z,9.6
2023-01-07T09:00:57.000Z,9.7
2023-01-07T09:03:42.000Z,9.7
2023-01-07T09:05:00.000Z,9.8
2023-01-07T09:06:27.000Z,9.8
2023-01-07T09:09:11.000Z,9.8
2023-01-07T09:11:56.000Z,9.8
2023-01-07T09:14:40.000Z,9.8
2023-01-07T09:17:25.000Z,9.8
2023-01-07T09:20:10.000Z,9.9
2023-01-07T09:22:54.000Z,9.9
2023-01-07T09:25:39.000Z,9.9
2023-01-07T09:28:24.000Z,9.9
2023-01-07T09:31:08.000Z,10
2023-01-07T09:32:26.000Z,10
2023-01-07T09:33:53.000Z,10
2023-01-07T09:36:38.000Z,10
2023-01-07T09:39:22.000Z,10
2023-01-07T09:42:07.000Z,10.1
2023-01-07T09:44:52.000Z,10.1
2023-01-07T09:47:36.000Z,10.1
2023-01-07T09:50:21.000Z,10.2
2023-01-07T09:53:05.000Z,10.3
2023-01-07T09:55:50.000Z,10.3
2023-01-07T09:58:35.000Z,10.4
2023-01-07T09:59:53.000Z,10.5
2023-01-07T10:01:19.000Z,10.5
2023-01-07T10:04:04.000Z,10.6
2023-01-07T10:06:49.000Z,10.6
2023-01-07T10:09:33.000Z,10.7
2023-01-07T10:12:18.000Z,10.7
2023-01-07T10:15:03.000Z,10.8
2023-01-07T10:17:47.000Z,10.8
2023-01-07T10:20:32.000Z,10.8
2023-01-07T10:23:16.000Z,10.8
2023-01-07T10:26:01.000Z,10.9
2023-01-07T10:27:19.000Z,11
2023-01-07T10:28:46.000Z,11.1
2023-01-07T10:31:30.000Z,11.1
2023-01-07T10:34:15.000Z,11.2
2023-01-07T10:37:00.000Z,11.1
2023-01-07T10:39:44.000Z,11.1
2023-01-07T10:42:29.000Z,11.1
2023-01-07T10:47:58.000Z,11.1
2023-01-07T10:50:43.000Z,11.1
2023-01-07T10:53:28.000Z,11.1
2023-01-07T10:54:46.000Z,11.2
2023-01-07T10:56:29.000Z,11.2
2023-01-07T10:59:13.000Z,11.2
2023-01-07T11:01:58.000Z,11.2
2023-01-07T11:04:42.000Z,11.2
2023-01-07T11:07:27.000Z,11.2
2023-01-07T11:10:12.000Z,11.2
2023-01-07T11:12:56.000Z,11.3
2023-01-07T11:15:41.000Z,11.3
2023-01-07T11:18:26.000Z,11.3
2023-01-07T11:21:10.000Z,11.4
2023-01-07T11:22:28.000Z,11.5
2023-01-07T11:23:55.000Z,11.5
2023-01-07T11:26:40.000Z,11.5
2023-01-07T11:29:24.000Z,11.5
2023-01-07T11:32:09.000Z,11.6
2023-01-07T11:34:54.000Z,11.7
2023-01-07T11:37:38.000Z,11.8
2023-01-07T11:40:23.000Z,12
2023-01-07T11:43:07.000Z,12.1
2023-01-07T11:45:52.000Z,12.2
2023-01-07T11:48:37.000Z,12.4
2023-01-07T11:49:54.000Z,12.7
2023-01-07T11:51:21.000Z,13
2023-01-07T11:54:06.000Z,13
2023-01-07T11:56:51.000Z,13
2023-01-07T11:59:35.000Z,13.1
2023-01-07T12:02:20.000Z,13.3
2023-01-07T12:05:05.000Z,13.5
2023-01-07T12:07:49.000Z,13.5
2023-01-07T12:10:34.000Z,13.7
2023-01-07T12:13:18.000Z,13.5
2023-01-07T12:16:03.000Z,13.7
2023-01-07T12:17:21.000Z,13.3
2023-01-07T12:18:48.000Z,13.3
2023-01-07T12:21:32.000Z,13.1
2023-01-07T12:24:17.000Z,13.2
2023-01-07T12:27:02.000Z,13.7
2023-01-07T12:29:46.000Z,13.7
2023-01-07T12:32:31.000Z,13.7
2023-01-07T12:35:16.000Z,13.6
2023-01-07T12:38:00.000Z,13.5
2023-01-07T12:40:45.000Z,13.5
2023-01-07T12:43:30.000Z,13.2
2023-01-07T12:44:47.000Z,13.2
2023-01-07T12:46:14.000Z,13.2
2023-01-07T12:48:59.000Z,13.4
2023-01-07T12:51:43.000Z,13.2
2023-01-07T12:54:28.000Z,13.1
2023-01-07T12:57:13.000Z,13
2023-01-07T12:59:57.000Z,12.8
2023-01-07T13:02:42.000Z,12.7
2023-01-07T13:05:27.000Z,12.9
2023-01-07T13:08:11.000Z,12.8
2023-01-07T13:10:56.000Z,12.8
2023-01-07T13:13:41.000Z,12.7
2023-01-07T13:16:25.000Z,12.7
2023-01-07T13:19:10.000Z,12.5
2023-01-07T13:21:55.000Z,12.4
2023-01-07T13:24:39.000Z,12.4
2023-01-07T13:27:24.000Z,12.3
2023-01-07T13:30:08.000Z,12.3
2023-01-07T13:32:53.000Z,12.3
2023-01-07T13:35:38.000Z,12.3
2023-01-07T13:38:22.000Z,12.2
2023-01-07T13:39:40.000Z,12.2
2023-01-07T13:41:07.000Z,12.2
2023-01-07T13:43:52.000Z,12.2
2023-01-07T13:46:36.000Z,12.1
2023-01-07T13:49:21.000Z,12.1
2023-01-07T13:52:06.000Z,12.2
2023-01-07T13:54:50.000Z,12.2
2023-01-07T13:57:35.000Z,12.1
2023-01-07T14:00:19.000Z,12.1
2023-01-07T14:03:04.000Z,12.1
2023-01-07T14:05:49.000Z,12.2
2023-01-07T14:07:07.000Z,12.3
2023-01-07T14:08:33.000Z,12.3
2023-01-07T14:11:18.000Z,12.2
2023-01-07T14:14:03.000Z,12.1
2023-01-07T14:16:47.000Z,12
2023-01-07T14:19:32.000Z,12
2023-01-07T14:22:17.000Z,11.9
2023-01-07T14:25:01.000Z,11.9
2023-01-07T14:27:46.000Z,11.8
2023-01-07T14:30:31.000Z,11.7
2023-01-07T14:33:15.000Z,11.7
2023-01-07T14:34:33.000Z,11.7
2023-01-07T14:36:00.000Z,11.7
2023-01-07T14:38:44.000Z,11.6
2023-01-07T14:41:29.000Z,11.6
2023-01-07T14:44:14.000Z,11.7
2023-01-07T14:46:58.000Z,11.6
2023-01-07T14:49:43.000Z,11.6
2023-01-07T14:52:28.000Z,11.5
2023-01-07T14:55:12.000Z,11.5
2023-01-07T14:57:57.000Z,11.5
2023-01-07T15:00:42.000Z,11.4
2023-01-07T15:01:59.000Z,11.2
2023-01-07T15:03:26.000Z,11.2
2023-01-07T15:06:11.000Z,11.2
2023-01-07T15:08:56.000Z,11.1
2023-01-07T15:11:40.000Z,10.9
2023-01-07T15:14:25.000Z,10.9
2023-01-07T15:17:09.000Z,10.9
2023-01-07T15:19:54.000Z,10.8
2023-01-07T15:22:39.000Z,10.8
2023-01-07T15:25:23.000Z,10.7
2023-01-07T15:28:08.000Z,10.6
2023-01-07T15:29:26.000Z,10.6
2023-01-07T15:30:53.000Z,10.5
2023-01-07T15:33:37.000Z,10.5
2023-01-07T15:36:22.000Z,10.5
2023-01-07T15:39:07.000Z,10.4
2023-01-07T15:41:51.000Z,10.5
2023-01-07T15:44:36.000Z,10.4
2023-01-07T15:47:20.000Z,10.3
2023-01-07T15:50:05.000Z,10.3
2023-01-07T15:52:50.000Z,10.1
2023-01-07T15:55:34.000Z,10.1
2023-01-07T15:56:52.000Z,10.1
2023-01-07T15:58:19.000Z,10.1
2023-01-07T16:01:04.000Z,10
2023-01-07T16:03:48.000Z,9.8
2023-01-07T16:06:33.000Z,9.6
2023-01-07T16:09:18.000Z,9.5
2023-01-07T16:12:02.000Z,9.6
2023-01-07T16:14:47.000Z,9.7
2023-01-07T16:17:32.000Z,9.7
2023-01-07T16:20:16.000Z,9.7
2023-01-07T16:23:01.000Z,9.7
2023-01-07T16:24:19.000Z,9.8
2023-01-07T16:25:45.000Z,9.8
2023-01-07T16:28:30.000Z,9.7
2023-01-07T16:31:15.000Z,9.6
2023-01-07T16:33:59.000Z,9.6
2023-01-07T16:36:44.000Z,9.7
2023-01-07T16:39:29.000Z,9.6
2023-01-07T16:42:13.000Z,9.7
2023-01-07T16:44:58.000Z,9.6
2023-01-07T16:47:43.000Z,9.6
2023-01-07T16:50:27.000Z,9.5
2023-01-07T16:51:45.000Z,9.4
2023-01-07T16:53:12.000Z,9.3
2023-01-07T16:55:56.000Z,9.3
2023-01-07T16:58:41.000Z,9.3
2023-01-07T17:01:26.000Z,9.4
2023-01-07T17:04:10.000Z,9.4
2023-01-07T17:06:55.000Z,9.4
2023-01-07T17:09:40.000Z,9.3
2023-01-07T17:12:24.000Z,9.3
2023-01-07T17:15:09.000Z,9.4
2023-01-07T17:17:54.000Z,9.3
2023-01-07T17:19:12.000Z,9.3
2023-01-07T17:23:23.000Z,9.4
2023-01-07T17:26:08.000Z,9.4
2023-01-07T17:28:52.000Z,9.4
2023-01-07T17:31:37.000Z,9.3
2023-01-07T17:34:21.000Z,9.4
2023-01-07T17:37:06.000Z,9.3
2023-01-07T17:39:51.000Z,9.4
2023-01-07T17:42:35.000Z,9.3
2023-01-07T17:45:20.000Z,9.3
2023-01-07T17:46:38.000Z,9.4
2023-01-07T17:48:05.000Z,9.4
2023-01-07T17:50:49.000Z,9.5
2023-01-07T17:53:34.000Z,9.5
2023-01-07T17:56:19.000Z,9.5
2023-01-07T17:59:03.000Z,9.6
2023-01-07T18:01:48.000Z,9.6
2023-01-07T18:04:33.000Z,9.6
2023-01-07T18:07:17.000Z,9.7
2023-01-07T18:10:02.000Z,9.7
2023-01-07T18:12:46.000Z,9.7
2023-01-07T18:14:04.000Z,9.7
2023-01-07T18:15:31.000Z,9.8
2023-01-07T18:18:16.000Z,9.7
2023-01-07T18:21:00.000Z,9.7
2023-01-07T18:23:45.000Z,9.7
2023-01-07T18:26:30.000Z,9.8
2023-01-07T18:29:14.000Z,9.8
2023-01-07T18:31:59.000Z,9.8
2023-01-07T18:34:44.000Z,9.7
2023-01-07T18:37:28.000Z,9.7
2023-01-07T18:40:13.000Z,9.7
2023-01-07T18:41:31.000Z,9.7
2023-01-07T18:42:57.000Z,9.7
2023-01-07T18:45:42.000Z,9.6
2023-01-07T18:48:27.000Z,9.6
2023-01-07T18:51:11.000Z,9.5
2023-01-07T18:53:56.000Z,9.5
2023-01-07T18:56:41.000Z,9.5
2023-01-07T18:59:25.000Z,9.6
2023-01-07T19:02:10.000Z,9.6
2023-01-07T19:04:55.000Z,9.5
2023-01-07T19:07:39.000Z,9.5
2023-01-07T19:08:57.000Z,9.5
2023-01-07T19:10:24.000Z,9.5
2023-01-07T19:13:09.000Z,9.5
2023-01-07T19:16:10.051Z,9.5
2023-01-07T19:18:54.000Z,9.5
2023-01-07T19:21:39.000Z,9.5
2023-01-07T19:24:23.000Z,9.5
2023-01-07T19:27:08.000Z,9.5
2023-01-07T19:29:53.000Z,9.5
2023-01-07T19:32:37.000Z,9.5
2023-01-07T19:35:22.000Z,9.6
2023-01-07T19:36:40.000Z,9.7
2023-01-07T19:38:07.000Z,9.8
2023-01-07T19:40:51.000Z,9.8
2023-01-07T19:43:36.000Z,9.7
2023-01-07T19:46:21.000Z,9.7
2023-01-07T19:49:05.000Z,9.7
2023-01-07T19:51:50.000Z,9.8
2023-01-07T19:54:35.000Z,9.7
2023-01-07T19:57:19.000Z,9.6
2023-01-07T20:00:04.000Z,9.7
2023-01-07T20:02:48.000Z,9.7
2023-01-07T20:04:06.000Z,9.8
2023-01-07T20:05:33.000Z,9.8
2023-01-07T20:08:18.000Z,9.9
2023-01-07T20:11:02.000Z,9.9
2023-01-07T20:13:47.000Z,10
2023-01-07T20:16:32.000Z,10
2023-01-07T20:19:16.000Z,10.1
2023-01-07T20:22:01.000Z,10.1
2023-01-07T20:24:46.000Z,10.1
2023-01-07T20:27:30.000Z,10.2
2023-01-07T20:30:15.000Z,10.2
2023-01-07T20:31:33.000Z,10.2
2023-01-07T20:32:59.000Z,10.2
2023-01-07T20:35:44.000Z,10.2
2023-01-07T20:38:29.000Z,10.3
2023-01-07T20:41:13.000Z,10.4
2023-01-07T20:43:58.000Z,10.5
2023-01-07T20:46:43.000Z,10.5
2023-01-07T20:49:27.000Z,10.6
2023-01-07T20:52:12.000Z,10.7
2023-01-07T20:54:57.000Z,10.7
2023-01-07T20:57:41.000Z,10.8
2023-01-07T20:58:59.000Z,10.7
2023-01-07T21:00:26.000Z,10.7
2023-01-07T21:03:11.000Z,10.8
2023-01-07T21:05:55.000Z,10.8
2023-01-07T21:08:40.000Z,10.8
2023-01-07T21:11:24.000Z,10.8
2023-01-07T21:14:09.000Z,10.8
2023-01-07T21:16:54.000Z,10.8
2023-01-07T21:19:38.000Z,10.9
2023-01-07T21:22:23.000Z,10.8
2023-01-07T21:25:08.000Z,10.9
2023-01-07T21:26:25.000Z,11
2023-01-07T21:27:52.000Z,11
2023-01-07T21:30:37.000Z,11
2023-01-07T21:33:22.000Z,11
2023-01-07T21:36:06.000Z,11
2023-01-07T21:38:51.000Z,10.9
2023-01-07T21:41:36.000Z,10.9
2023-01-07T21:44:20.000Z,10.9
2023-01-07T21:47:05.000Z,10.8
2023-01-07T21:49:49.000Z,10.8
2023-01-07T21:52:34.000Z,10.9
2023-01-07T21:53:52.000Z,10.9
2023-01-07T21:55:19.000Z,10.9
2023-01-07T21:58:03.000Z,10.9
2023-01-07T22:03:33.000Z,10.9
2023-01-07T22:06:17.000Z,10.9
2023-01-07T22:11:47.000Z,10.9
2023-01-07T22:14:31.000Z,10.9
2023-01-07T22:17:16.000Z,10.8
2023-01-07T22:20:00.000Z,10.9
2023-01-07T22:21:18.000Z,10.9
2023-01-07T22:22:45.000Z,10.9
2023-01-07T22:28:14.000Z,10.9
2023-01-07T22:30:59.000Z,10.9
2023-01-07T22:34:00.000Z,10.8
2023-01-07T22:36:45.000Z,10.9
2023-01-07T22:39:29.000Z,10.9
2023-01-07T22:42:14.000Z,10.8
2023-01-07T22:44:59.000Z,10.8
2023-01-07T22:47:43.000Z,10.8
2023-01-07T22:50:28.000Z,10.7
2023-01-07T22:53:13.000Z,10.7
2023-01-07T22:55:57.000Z,10.7
2023-01-07T22:58:42.000Z,10.8
2023-01-07T23:01:26.000Z,10.8
2023-01-07T23:04:11.000Z,10.8
2023-01-07T23:06:56.000Z,10.8
2023-01-07T23:09:40.000Z,10.8
2023-01-07T23:12:25.000Z,10.8
2023-01-07T23:15:10.000Z,10.9
2023-01-07T23:16:27.000Z,10.9
2023-01-07T23:17:54.000Z,10.9
2023-01-07T23:20:39.000Z,10.9
2023-01-07T23:23:24.000Z,10.9
2023-01-07T23:26:08.000Z,10.9
2023-01-07T23:28:53.000Z,10.9
2023-01-07T23:31:54.000Z,10.8
2023-01-07T23:34:39.000Z,10.9
2023-01-07T23:37:23.000Z,10.9
2023-01-07T23:40:08.000Z,10.9
2023-01-07T23:42:52.000Z,10.9
2023-01-07T23:44:10.000Z,10.9
2023-01-07T23:45:37.000Z,10.9
2023-01-07T23:48:22.000Z,10.9
2023-01-07T23:51:06.000Z,10.9
2023-01-07T23:53:51.000Z,10.9
2023-01-07T23:56:36.000Z,10.9
2023-01-07T23:59:20.000Z,10.8
